Time;durP1;ratioP1;P1;durP2;ratioP2;P2;SDS_P1;SDS_P2;PMS_P1;PMS_P2;Temp;Humidity;BMP_temperature;BMP_pressure;BME280_temperature;BME280_humidity;BME280_pressure;Samples;Min_cycle;Max_cycle;Signal;HPM_P1;HPM_P2
2023/06/09 00:02:04;;;;;;;9.97;7.00;;;13.50;41.70;;;;;;5025221;28;46465;-65
2023/06/09 00:04:33;;;;;;;11.70;8.40;;;13.50;41.70;;;;;;5027784;28;46449;-67
2023/06/09 00:07:00;;;;;;;12.03;9.20;;;13.60;41.70;;;;;;5019223;28;46602;-65
2023/06/09 00:09:25;;;;;;;11.10;8.00;;;13.50;41.60;;;;;;5026733;28;46482;-66
2023/06/09 00:11:51;;;;;;;13.27;7.97;;;13.50;41.60;;;;;;5024684;28;46441;-65
2023/06/09 00:14:17;;;;;;;13.63;9.20;;;13.60;41.70;;;;;;5026213;28;46731;-66
2023/06/09 00:16:46;;;;;;;14.23;9.30;;;13.60;41.70;;;;;;5021937;28;47136;-65
2023/06/09 00:19:16;;;;;;;13.10;9.50;;;13.60;41.70;;;;;;5028031;28;46158;-65
2023/06/09 00:21:46;;;;;;;13.77;8.60;;;13.50;41.60;;;;;;5020470;28;46373;-65
2023/06/09 00:24:12;;;;;;;14.97;8.80;;;13.60;41.70;;;;;;5024943;28;46541;-65
2023/06/09 00:26:38;;;;;;;13.20;9.00;;;13.60;41.70;;;;;;5023683;28;47118;-65
2023/06/09 00:29:03;;;;;;;13.87;10.33;;;13.60;41.80;;;;;;5031052;28;46397;-65
2023/06/09 00:31:29;;;;;;;15.27;11.10;;;13.50;41.70;;;;;;5025777;28;46413;-65
2023/06/09 00:33:55;;;;;;;14.50;8.77;;;13.50;42.90;;;;;;5029853;28;46354;-66
2023/06/09 00:36:21;;;;;;;12.70;8.83;;;13.40;43.60;;;;;;5021632;28;46349;-66
2023/06/09 00:38:46;;;;;;;13.10;9.23;;;13.40;45.00;;;;;;5030604;28;45863;-66
2023/06/09 00:41:12;;;;;;;13.73;8.60;;;13.30;45.40;;;;;;5024822;28;46411;-65
2023/06/09 00:43:37;;;;;;;11.60;7.70;;;13.30;45.80;;;;;;5020589;28;46690;-65
2023/06/09 00:46:07;;;;;;;14.83;8.43;;;13.30;46.20;;;;;;5022311;28;47083;-65
2023/06/09 00:48:35;;;;;;;10.90;8.00;;;13.30;46.40;;;;;;5026140;28;46414;-65
2023/06/09 00:51:01;;;;;;;11.57;7.80;;;13.40;46.60;;;;;;5026917;28;45796;-65
2023/06/09 00:53:27;;;;;;;11.77;7.40;;;13.30;46.70;;;;;;5021996;28;45902;-65
2023/06/09 00:55:53;;;;;;;15.23;7.23;;;13.30;46.90;;;;;;5021226;28;46478;-65
2023/06/09 00:58:20;;;;;;;8.50;6.60;;;13.40;46.80;;;;;;5027534;28;45935;-65
2023/06/09 01:00:46;;;;;;;12.30;7.10;;;13.40;46.80;;;;;;5028390;28;46452;-66
2023/06/09 01:03:12;;;;;;;11.97;6.97;;;13.40;46.50;;;;;;5026112;28;46580;-65
2023/06/09 01:05:38;;;;;;;8.60;6.77;;;13.40;46.40;;;;;;5021287;28;45986;-65
2023/06/09 01:08:19;;;;;;;12.63;7.57;;;13.40;46.40;;;;;;5026689;28;46436;-65
2023/06/09 01:11:33;;;;;;;10.80;6.80;;;13.40;46.90;;;;;;5024372;28;46476;-65
2023/06/09 01:14:20;;;;;;;11.73;6.80;;;13.40;47.10;;;;;;4983282;28;46597;-65
2023/06/09 01:16:57;;;;;;;9.10;6.93;;;13.40;46.60;;;;;;4979574;28;46428;-65
2023/06/09 01:19:34;;;;;;;10.30;7.00;;;13.40;46.30;;;;;;5018406;28;45755;-64
2023/06/09 01:22:06;;;;;;;8.93;7.00;;;13.40;46.40;;;;;;5023789;28;46597;-66
2023/06/09 01:24:32;;;;;;;10.87;6.40;;;13.40;46.40;;;;;;5024414;28;46464;-64
2023/06/09 01:27:01;;;;;;;14.60;6.90;;;13.40;46.20;;;;;;5024694;28;46592;-65
2023/06/09 01:29:32;;;;;;;10.17;6.87;;;13.30;46.20;;;;;;5024909;28;46411;-66
2023/06/09 01:32:00;;;;;;;12.00;7.57;;;13.40;46.40;;;;;;5026175;28;46702;-65
2023/06/09 01:34:27;;;;;;;10.53;7.03;;;13.30;46.30;;;;;;5023197;28;46332;-65
2023/06/09 01:36:53;;;;;;;8.73;6.77;;;13.30;46.30;;;;;;5027983;28;45985;-65
2023/06/09 01:39:19;;;;;;;10.73;6.90;;;13.30;46.30;;;;;;5026828;28;46472;-65
2023/06/09 01:41:45;;;;;;;8.33;6.37;;;13.30;46.20;;;;;;5020546;28;46450;-65
2023/06/09 01:44:10;;;;;;;10.43;6.83;;;13.30;46.20;;;;;;5020807;28;46888;-65
2023/06/09 01:46:37;;;;;;;12.90;7.10;;;13.20;46.10;;;;;;5026572;28;47150;-65
2023/06/09 01:49:18;;;;;;;9.77;7.17;;;13.10;46.50;;;;;;5028014;28;45823;-65
2023/06/09 01:51:50;;;;;;;11.70;6.60;;;13.00;46.60;;;;;;5023435;28;46527;-65
2023/06/09 01:54:23;;;;;;;9.33;6.47;;;13.00;46.40;;;;;;5023668;28;46584;-66
2023/06/09 01:56:58;;;;;;;12.90;8.00;;;12.90;46.50;;;;;;5041990;28;48350;-65
2023/06/09 01:59:28;;;;;;;9.40;6.83;;;12.80;46.50;;;;;;5025359;28;46350;-65
2023/06/09 02:01:56;;;;;;;10.10;6.63;;;12.70;46.60;;;;;;5020298;28;46337;-65
2023/06/09 02:04:25;;;;;;;14.50;8.10;;;12.60;46.60;;;;;;5025543;28;46459;-66
2023/06/09 02:06:52;;;;;;;14.37;8.03;;;12.60;46.70;;;;;;5021617;28;46660;-65
2023/06/09 02:09:18;;;;;;;9.63;7.00;;;12.50;46.80;;;;;;5025010;28;46786;-65
2023/06/09 02:11:53;;;;;;;11.83;7.50;;;12.40;46.90;;;;;;5031497;28;46614;-66
2023/06/09 02:14:19;;;;;;;12.23;7.20;;;12.40;47.00;;;;;;5027995;28;46544;-65
2023/06/09 02:16:47;;;;;;;12.03;7.07;;;12.40;46.90;;;;;;5021460;28;46362;-65
2023/06/09 02:19:14;;;;;;;11.00;6.93;;;12.30;46.90;;;;;;5021245;28;45875;-65
2023/06/09 02:21:40;;;;;;;12.67;8.10;;;12.30;46.80;;;;;;5022765;28;46698;-65
2023/06/09 02:24:06;;;;;;;10.70;8.00;;;12.30;46.80;;;;;;5030326;28;46465;-65
2023/06/09 02:26:32;;;;;;;11.03;7.70;;;12.30;47.00;;;;;;5022240;28;46726;-65
2023/06/09 02:28:57;;;;;;;13.23;8.43;;;12.20;47.00;;;;;;5020735;28;46436;-65
2023/06/09 02:31:23;;;;;;;10.13;7.10;;;12.20;47.10;;;;;;5040708;28;46427;-65
2023/06/09 02:33:49;;;;;;;12.40;7.60;;;12.20;46.90;;;;;;5023650;28;46304;-64
2023/06/09 02:36:15;;;;;;;11.00;7.97;;;12.20;47.10;;;;;;5023865;28;46668;-65
2023/06/09 02:38:41;;;;;;;10.50;7.77;;;12.20;47.00;;;;;;5021489;28;46347;-66
2023/06/09 02:41:07;;;;;;;10.00;7.30;;;12.20;48.20;;;;;;5022801;28;45846;-64
2023/06/09 02:43:32;;;;;;;11.37;7.77;;;12.20;47.20;;;;;;5022469;28;46629;-65
2023/06/09 02:45:58;;;;;;;11.80;7.97;;;12.20;47.20;;;;;;5019458;28;46481;-65
2023/06/09 02:48:24;;;;;;;11.83;7.77;;;12.20;47.20;;;;;;5021930;28;46473;-65
2023/06/09 02:50:49;;;;;;;11.70;8.00;;;12.10;47.20;;;;;;5021255;28;46464;-65
2023/06/09 02:53:15;;;;;;;15.20;7.70;;;12.10;47.40;;;;;;5024245;28;46651;-64
2023/06/09 02:55:44;;;;;;;12.50;8.30;;;12.00;47.40;;;;;;5027381;28;46433;-64
2023/06/09 02:58:14;;;;;;;11.20;7.60;;;12.00;47.60;;;;;;5025336;28;46410;-64
2023/06/09 03:00:41;;;;;;;11.37;8.03;;;12.00;47.70;;;;;;5026979;28;46497;-65
2023/06/09 03:03:08;;;;;;;10.13;7.43;;;12.00;47.60;;;;;;5018577;28;45847;-64
2023/06/09 03:05:35;;;;;;;11.33;7.23;;;12.00;47.60;;;;;;5025941;28;46111;-64
2023/06/09 03:08:01;;;;;;;12.10;7.80;;;12.00;47.70;;;;;;5027161;28;46421;-63
2023/06/09 03:10:26;;;;;;;11.13;7.47;;;12.00;47.50;;;;;;5029497;28;45891;-66
2023/06/09 03:12:52;;;;;;;15.73;7.90;;;12.00;47.50;;;;;;5023451;28;46398;-64
2023/06/09 03:15:18;;;;;;;10.50;7.00;;;12.00;47.60;;;;;;5025396;28;46390;-65
2023/06/09 03:17:44;;;;;;;11.00;7.77;;;12.00;47.40;;;;;;5029520;28;46342;-65
2023/06/09 03:20:10;;;;;;;17.00;6.60;;;12.00;47.40;;;;;;5025648;28;46640;-65
2023/06/09 03:22:36;;;;;;;11.67;7.27;;;12.00;47.40;;;;;;5025660;28;46492;-65
2023/06/09 03:25:02;;;;;;;10.53;6.90;;;11.90;47.50;;;;;;5025780;28;46406;-66
2023/06/09 03:27:29;;;;;;;13.87;7.23;;;11.90;47.50;;;;;;5027606;28;46433;-64
2023/06/09 03:29:55;;;;;;;9.33;7.07;;;11.90;47.50;;;;;;5019910;28;46411;-64
2023/06/09 03:32:21;;;;;;;11.87;7.50;;;12.00;47.30;;;;;;5024728;28;46460;-64
2023/06/09 03:34:47;;;;;;;11.67;7.33;;;12.00;47.20;;;;;;5027425;28;47077;-64
2023/06/09 03:37:14;;;;;;;16.90;7.23;;;12.00;47.10;;;;;;5022867;28;46365;-65
2023/06/09 03:39:40;;;;;;;13.33;8.30;;;12.10;47.10;;;;;;5024542;28;46420;-66
2023/06/09 03:42:06;;;;;;;9.73;6.90;;;12.10;47.20;;;;;;5023754;28;45921;-66
2023/06/09 03:44:32;;;;;;;16.07;8.17;;;12.10;46.90;;;;;;5031929;28;46242;-65
2023/06/09 03:46:58;;;;;;;10.73;8.07;;;12.20;46.90;;;;;;5040396;28;46511;-66
2023/06/09 03:49:23;;;;;;;11.43;8.30;;;12.30;46.70;;;;;;5024985;28;46416;-66
2023/06/09 03:51:49;;;;;;;14.57;7.87;;;12.40;46.50;;;;;;5026276;28;46663;-65
2023/06/09 03:54:14;;;;;;;9.37;7.10;;;12.40;47.50;;;;;;5025527;28;47204;-65
2023/06/09 03:56:40;;;;;;;11.10;6.90;;;12.50;46.50;;;;;;5022893;28;46645;-66
2023/06/09 03:59:06;;;;;;;11.70;7.10;;;12.50;46.60;;;;;;5027377;28;46385;-65
2023/06/09 04:01:32;;;;;;;10.50;7.47;;;12.50;46.70;;;;;;5028034;28;46605;-66
2023/06/09 04:03:58;;;;;;;11.80;7.60;;;12.60;46.60;;;;;;5027579;28;46795;-65
2023/06/09 04:06:23;;;;;;;10.40;6.77;;;12.70;46.20;;;;;;5022647;28;46401;-65
2023/06/09 04:08:49;;;;;;;9.77;7.27;;;12.80;46.10;;;;;;5027151;28;46418;-65
2023/06/09 04:11:15;;;;;;;14.30;6.30;;;12.90;45.90;;;;;;5028890;28;46649;-65
2023/06/09 04:13:40;;;;;;;14.07;6.83;;;12.90;45.70;;;;;;5024826;28;46628;-65
2023/06/09 04:16:06;;;;;;;13.57;7.00;;;12.90;45.60;;;;;;5027158;28;46208;-66
2023/06/09 04:18:31;;;;;;;10.33;6.80;;;13.00;45.40;;;;;;5028708;28;46385;-66
2023/06/09 04:20:57;;;;;;;8.37;6.30;;;13.10;45.20;;;;;;5026689;28;46639;-66
2023/06/09 04:23:27;;;;;;;11.33;6.73;;;13.20;44.90;;;;;;5023856;28;46492;-66
2023/06/09 04:25:53;;;;;;;14.03;7.27;;;13.40;44.50;;;;;;5024495;28;46501;-66
2023/06/09 04:28:19;;;;;;;15.67;6.60;;;13.40;44.20;;;;;;5030208;28;46720;-67
2023/06/09 04:30:45;;;;;;;9.97;6.50;;;13.60;44.10;;;;;;5028010;28;46640;-66
2023/06/09 04:33:12;;;;;;;11.87;7.50;;;13.70;43.80;;;;;;5022968;28;46158;-66
2023/06/09 04:35:37;;;;;;;11.53;7.50;;;13.80;43.40;;;;;;5025777;28;45803;-66
2023/06/09 04:38:03;;;;;;;9.27;6.70;;;13.90;44.30;;;;;;5025072;28;46518;-66
2023/06/09 04:40:29;;;;;;;13.30;8.20;;;14.20;42.30;;;;;;5021795;28;46823;-66
2023/06/09 04:42:57;;;;;;;8.33;6.23;;;14.60;41.50;;;;;;5024969;28;47034;-65
2023/06/09 04:45:27;;;;;;;16.83;6.03;;;16.10;39.20;;;;;;5025163;28;46765;-66
2023/06/09 04:48:00;;;;;;;12.70;6.80;;;17.70;36.10;;;;;;5023962;28;47507;-66
2023/06/09 04:50:29;;;;;;;9.17;5.50;;;19.20;32.50;;;;;;5027778;28;46442;-66
2023/06/09 04:52:56;;;;;;;8.80;5.97;;;20.50;29.40;;;;;;5023955;28;46345;-66
2023/06/09 04:55:25;;;;;;;8.10;5.63;;;21.40;27.50;;;;;;5029464;28;46455;-66
2023/06/09 04:57:56;;;;;;;11.37;6.17;;;22.20;25.70;;;;;;5023044;28;46694;-66
2023/06/09 05:00:22;;;;;;;9.90;6.30;;;22.80;24.40;;;;;;5022082;28;46772;-66
2023/06/09 05:02:49;;;;;;;8.53;6.00;;;23.50;22.70;;;;;;5031653;28;46664;-66
2023/06/09 05:05:15;;;;;;;11.30;5.87;;;24.00;21.60;;;;;;5021027;28;46378;-66
2023/06/09 05:07:41;;;;;;;10.13;6.43;;;24.20;20.90;;;;;;5020133;28;46287;-67
2023/06/09 05:10:08;;;;;;;8.13;5.30;;;24.70;20.00;;;;;;5024988;28;46456;-67
2023/06/09 05:12:36;;;;;;;11.13;6.07;;;25.10;18.70;;;;;;5022771;28;46386;-66
2023/06/09 05:15:05;;;;;;;8.30;5.90;;;25.60;17.30;;;;;;5019604;28;46406;-66
2023/06/09 05:17:33;;;;;;;8.50;5.57;;;26.20;15.50;;;;;;5022302;28;46415;-67
2023/06/09 05:19:59;;;;;;;6.70;4.70;;;26.20;14.50;;;;;;5026411;28;46501;-66
2023/06/09 05:22:25;;;;;;;8.50;5.27;;;26.40;12.80;;;;;;5025329;28;46480;-67
2023/06/09 05:24:51;;;;;;;7.13;5.13;;;26.80;11.60;;;;;;5023763;28;46549;-66
2023/06/09 05:27:17;;;;;;;9.00;4.93;;;27.20;10.50;;;;;;5025313;28;46243;-65
2023/06/09 05:29:43;;;;;;;9.23;5.30;;;27.10;9.70;;;;;;5026188;28;46658;-65
2023/06/09 05:32:09;;;;;;;6.50;4.60;;;26.90;9.50;;;;;;5025805;28;46539;-66
2023/06/09 05:34:34;;;;;;;9.33;5.00;;;27.00;9.40;;;;;;5017186;28;46441;-64
2023/06/09 05:37:00;;;;;;;9.33;4.80;;;27.40;8.70;;;;;;5021671;28;46417;-65
2023/06/09 05:39:26;;;;;;;8.60;4.47;;;27.50;8.00;;;;;;5023637;28;46261;-65
2023/06/09 05:41:51;;;;;;;6.87;4.37;;;27.80;7.90;;;;;;5036275;28;47875;-66
2023/06/09 05:44:18;;;;;;;7.47;4.53;;;28.10;6.90;;;;;;5020650;28;46434;-64
2023/06/09 05:46:44;;;;;;;8.97;4.60;;;28.40;5.60;;;;;;5024307;28;46465;-64
2023/06/09 05:49:09;;;;;;;6.47;4.47;;;28.30;5.90;;;;;;5014144;28;47029;-65
2023/06/09 05:51:36;;;;;;;6.80;4.57;;;28.40;5.30;;;;;;5018649;28;46610;-65
2023/06/09 05:54:02;;;;;;;5.40;3.53;;;27.10;7.00;;;;;;5021240;28;45837;-65
2023/06/09 05:56:27;;;;;;;11.90;5.70;;;25.50;10.50;;;;;;5021329;28;46403;-66
2023/06/09 05:59:01;;;;;;;7.43;4.40;;;24.20;13.60;;;;;;5024039;28;46421;-66
2023/06/09 06:01:27;;;;;;;6.80;4.10;;;23.10;15.50;;;;;;5026281;28;46642;-66
2023/06/09 06:03:53;;;;;;;7.80;4.50;;;22.50;17.00;;;;;;5018948;28;45933;-65
2023/06/09 06:06:19;;;;;;;6.70;4.27;;;21.70;18.30;;;;;;5020783;28;46706;-66
2023/06/09 06:08:44;;;;;;;8.13;4.77;;;21.50;18.60;;;;;;5023340;28;46656;-65
2023/06/09 06:11:10;;;;;;;7.13;4.73;;;21.30;19.00;;;;;;5022612;28;46430;-67
2023/06/09 06:13:36;;;;;;;6.63;4.37;;;21.20;19.10;;;;;;5024325;28;46440;-67
2023/06/09 06:16:02;;;;;;;7.97;5.17;;;21.20;19.30;;;;;;5018714;28;46566;-67
2023/06/09 06:18:27;;;;;;;10.33;5.40;;;21.20;19.40;;;;;;5023561;28;46657;-65
2023/06/09 06:20:53;;;;;;;12.97;6.10;;;20.90;19.90;;;;;;5026861;28;46504;-65
2023/06/09 06:23:18;;;;;;;15.87;6.03;;;20.70;20.40;;;;;;5024177;28;46454;-65
2023/06/09 06:25:45;;;;;;;12.40;6.23;;;20.70;20.50;;;;;;5025139;28;46492;-66
2023/06/09 06:28:10;;;;;;;9.10;6.03;;;20.80;20.80;;;;;;5028842;28;46465;-66
2023/06/09 06:30:37;;;;;;;8.83;6.30;;;20.50;21.30;;;;;;5017159;28;46512;-65
2023/06/09 06:33:04;;;;;;;9.43;6.47;;;20.50;21.50;;;;;;5019796;28;46526;-66
2023/06/09 06:35:30;;;;;;;8.40;5.90;;;20.70;21.50;;;;;;5022879;28;46485;-66
2023/06/09 06:37:57;;;;;;;11.40;6.80;;;20.80;21.50;;;;;;5022758;28;46470;-68
2023/06/09 06:40:24;;;;;;;9.53;7.27;;;21.00;21.60;;;;;;5018596;28;47417;-65
2023/06/09 06:42:51;;;;;;;12.77;7.17;;;21.00;21.60;;;;;;5022736;28;46524;-66
2023/06/09 06:45:17;;;;;;;10.17;7.00;;;21.00;22.30;;;;;;5020072;28;46526;-67
2023/06/09 06:47:45;;;;;;;11.10;7.30;;;21.00;22.60;;;;;;5021851;28;46398;-65
2023/06/09 06:50:14;;;;;;;13.07;7.53;;;21.20;22.50;;;;;;5018480;28;46494;-65
2023/06/09 06:52:40;;;;;;;10.90;7.70;;;21.30;22.10;;;;;;5021772;28;46477;-65
2023/06/09 06:55:07;;;;;;;11.20;8.33;;;21.20;22.70;;;;;;5026503;28;46385;-63
2023/06/09 06:57:36;;;;;;;10.80;7.37;;;21.20;22.70;;;;;;5018821;28;46488;-67
2023/06/09 07:00:08;;;;;;;11.57;7.97;;;21.30;22.50;;;;;;5017332;28;46971;-66
2023/06/09 07:02:35;;;;;;;19.13;8.47;;;21.30;22.70;;;;;;5016654;28;46555;-66
2023/06/09 07:05:01;;;;;;;11.70;8.37;;;21.30;23.20;;;;;;5018228;28;46421;-67
2023/06/09 07:07:27;;;;;;;16.07;8.70;;;21.30;23.30;;;;;;5016478;28;46462;-66
2023/06/09 07:09:53;;;;;;;12.27;8.80;;;21.20;23.30;;;;;;5019569;28;45932;-66
2023/06/09 07:12:18;;;;;;;11.03;8.03;;;21.20;23.30;;;;;;5020630;28;46417;-67
2023/06/09 07:14:44;;;;;;;10.60;7.93;;;21.50;23.50;;;;;;5019875;28;46389;-66
2023/06/09 07:17:10;;;;;;;12.07;8.13;;;21.70;23.20;;;;;;5022451;28;46589;-69
2023/06/09 07:19:36;;;;;;;11.63;8.00;;;21.90;23.00;;;;;;5019772;28;47634;-66
2023/06/09 07:22:02;;;;;;;10.67;8.20;;;22.00;22.40;;;;;;5016205;28;46418;-66
2023/06/09 07:24:27;;;;;;;10.63;7.77;;;22.10;22.80;;;;;;5016990;28;46623;-67
2023/06/09 07:26:53;;;;;;;14.90;8.50;;;22.00;23.10;;;;;;5015374;28;46669;-68
2023/06/09 07:29:19;;;;;;;11.47;8.40;;;21.80;23.70;;;;;;5018762;28;46736;-68
2023/06/09 07:31:45;;;;;;;14.63;9.20;;;21.90;23.80;;;;;;5019389;28;46671;-68
2023/06/09 07:34:11;;;;;;;14.00;9.20;;;21.90;23.80;;;;;;5017138;28;46643;-68
2023/06/09 07:36:37;;;;;;;20.20;9.53;;;21.90;23.80;;;;;;5021888;28;46453;-67
2023/06/09 07:39:04;;;;;;;13.93;10.10;;;21.80;23.70;;;;;;5019997;28;46529;-66
2023/06/09 07:41:30;;;;;;;14.47;9.90;;;22.00;23.90;;;;;;5019157;28;46457;-66
2023/06/09 07:43:57;;;;;;;15.70;10.67;;;22.10;23.90;;;;;;5019430;28;46477;-66
2023/06/09 07:46:23;;;;;;;16.63;11.50;;;22.00;23.80;;;;;;5020534;28;46532;-65
2023/06/09 07:48:49;;;;;;;15.00;10.30;;;22.20;24.00;;;;;;5020533;28;48247;-66
2023/06/09 07:51:16;;;;;;;14.67;11.00;;;22.20;24.00;;;;;;5024791;28;46372;-67
2023/06/09 07:53:42;;;;;;;14.80;10.00;;;22.20;24.00;;;;;;5025196;28;45903;-67
2023/06/09 07:56:08;;;;;;;16.93;10.57;;;22.20;24.00;;;;;;5022161;28;46423;-65
2023/06/09 07:58:34;;;;;;;19.73;10.77;;;22.20;23.20;;;;;;5022467;28;46354;-69
2023/06/09 08:01:00;;;;;;;15.00;10.10;;;22.20;24.00;;;;;;5019870;28;46394;-68
2023/06/09 08:03:28;;;;;;;14.87;10.10;;;22.40;24.10;;;;;;5020950;28;46580;-68
2023/06/09 08:05:55;;;;;;;17.03;9.87;;;22.30;24.10;;;;;;5021913;28;46640;-69
2023/06/09 08:08:21;;;;;;;15.23;10.20;;;22.40;24.10;;;;;;5020594;28;46342;-70
2023/06/09 08:10:46;;;;;;;12.93;9.07;;;22.30;24.10;;;;;;5016311;28;46513;-71
2023/06/09 08:13:15;;;;;;;14.30;9.97;;;22.30;24.10;;;;;;5024066;28;46432;-70
2023/06/09 08:15:41;;;;;;;12.93;8.77;;;22.40;24.10;;;;;;5023708;28;46591;-70
2023/06/09 08:18:06;;;;;;;12.23;8.00;;;22.40;23.70;;;;;;5019978;28;46488;-70
2023/06/09 08:20:32;;;;;;;11.30;7.87;;;22.60;23.50;;;;;;5023837;28;46549;-66
2023/06/09 08:22:58;;;;;;;14.43;7.40;;;22.60;23.20;;;;;;5024007;28;46698;-66
2023/06/09 08:25:24;;;;;;;10.07;7.30;;;22.50;22.70;;;;;;5025331;28;46933;-66
2023/06/09 08:27:49;;;;;;;10.13;7.30;;;22.60;22.40;;;;;;5019818;28;46393;-69
2023/06/09 08:30:15;;;;;;;11.67;7.00;;;22.70;22.50;;;;;;5024525;28;46465;-67
2023/06/09 08:32:41;;;;;;;11.00;7.90;;;22.90;22.00;;;;;;5026867;28;47091;-68
2023/06/09 08:35:08;;;;;;;12.53;8.30;;;23.10;21.50;;;;;;5026071;28;47331;-69
2023/06/09 08:37:35;;;;;;;11.07;7.60;;;23.00;21.40;;;;;;5022805;28;46418;-67
2023/06/09 08:40:04;;;;;;;10.00;7.40;;;22.90;21.40;;;;;;5024123;28;46523;-69
2023/06/09 08:42:31;;;;;;;10.90;7.27;;;23.10;21.10;;;;;;5026546;28;46912;-67
2023/06/09 08:45:05;;;;;;;11.50;7.43;;;23.10;20.90;;;;;;5030580;28;46615;-67
2023/06/09 08:47:32;;;;;;;9.87;6.40;;;23.10;21.20;;;;;;5021374;28;46345;-69
2023/06/09 08:49:59;;;;;;;13.30;9.20;;;23.20;20.80;;;;;;5026572;28;46352;-69
2023/06/09 08:52:26;;;;;;;12.73;8.80;;;23.20;19.90;;;;;;5026351;28;46764;-69
2023/06/09 08:54:54;;;;;;;10.70;7.03;;;23.20;20.80;;;;;;5025750;28;46505;-67
2023/06/09 08:57:21;;;;;;;9.73;6.20;;;23.40;20.40;;;;;;5019639;28;46674;-68
2023/06/09 08:59:47;;;;;;;10.03;6.80;;;23.80;20.50;;;;;;5022082;28;46555;-69
2023/06/09 09:02:14;;;;;;;17.03;6.60;;;23.80;19.60;;;;;;5022773;28;46589;-69
2023/06/09 09:04:40;;;;;;;10.23;6.10;;;23.90;19.50;;;;;;5022828;28;46754;-69
2023/06/09 09:07:07;;;;;;;8.90;5.70;;;24.10;19.10;;;;;;5018707;28;46441;-66
2023/06/09 09:09:33;;;;;;;8.73;6.03;;;24.20;18.70;;;;;;5025868;28;46787;-68
2023/06/09 09:12:01;;;;;;;12.17;6.60;;;24.20;17.20;;;;;;5023666;28;46552;-69
2023/06/09 09:14:26;;;;;;;10.63;5.47;;;24.10;18.00;;;;;;5020958;28;46639;-68
2023/06/09 09:16:52;;;;;;;8.30;5.20;;;24.10;18.00;;;;;;5020616;28;46556;-68
2023/06/09 09:19:29;;;;;;;10.27;5.97;;;24.40;17.20;;;;;;5025016;28;46443;-68
2023/06/09 09:22:05;;;;;;;7.90;4.80;;;24.20;16.40;;;;;;5024507;28;45905;-66
2023/06/09 09:24:31;;;;;;;10.03;5.77;;;24.20;15.80;;;;;;5020332;28;46923;-69
2023/06/09 09:26:57;;;;;;;14.53;5.80;;;24.50;15.70;;;;;;5024873;28;46469;-69
2023/06/09 09:29:29;;;;;;;6.60;4.23;;;24.40;15.70;;;;;;5025498;28;46756;-68
2023/06/09 09:31:58;;;;;;;8.30;4.87;;;24.70;13.80;;;;;;5022682;28;46696;-70
2023/06/09 09:34:31;;;;;;;9.30;4.73;;;24.70;14.70;;;;;;5025246;28;46430;-69
2023/06/09 09:36:57;;;;;;;22.03;6.90;;;24.90;14.80;;;;;;5020584;28;46853;-70
2023/06/09 09:39:24;;;;;;;32.63;6.67;;;24.80;14.70;;;;;;5023882;28;46705;-74
2023/06/09 09:42:06;;;;;;;7.40;5.53;;;24.70;14.30;;;;;;5018424;28;46213;-72
2023/06/09 09:44:38;;;;;;;6.77;4.60;;;24.70;14.70;;;;;;5024856;28;46660;-72
2023/06/09 09:47:10;;;;;;;15.80;6.67;;;24.90;14.80;;;;;;5020499;28;46425;-67
2023/06/09 09:49:36;;;;;;;10.87;4.80;;;25.20;14.10;;;;;;5022118;28;46510;-67
2023/06/09 09:52:06;;;;;;;11.23;5.40;;;25.20;14.20;;;;;;5022237;28;46470;-67
2023/06/09 09:54:35;;;;;;;9.57;6.37;;;25.30;13.90;;;;;;5024928;28;46534;-67
2023/06/09 09:57:01;;;;;;;8.07;4.77;;;25.40;13.80;;;;;;5016662;28;46808;-67
2023/06/09 09:59:27;;;;;;;7.20;5.23;;;25.50;13.50;;;;;;5019745;28;46465;-66
2023/06/09 10:01:55;;;;;;;7.20;4.60;;;25.00;12.60;;;;;;5022154;28;46643;-69
2023/06/09 10:04:23;;;;;;;8.47;5.57;;;24.90;13.50;;;;;;5023110;28;46469;-71
2023/06/09 10:06:58;;;;;;;9.73;5.17;;;24.60;14.10;;;;;;5020344;28;47105;-69
2023/06/09 10:09:25;;;;;;;7.33;5.00;;;24.70;14.40;;;;;;5023478;28;46760;-70
2023/06/09 10:11:55;;;;;;;9.43;4.80;;;24.70;12.70;;;;;;5021284;28;45872;-69
2023/06/09 10:14:21;;;;;;;6.80;4.40;;;24.70;13.20;;;;;;5022418;28;46970;-69
2023/06/09 10:16:49;;;;;;;8.77;4.67;;;24.80;12.80;;;;;;5017047;28;46438;-70
2023/06/09 10:19:17;;;;;;;8.00;4.73;;;24.80;12.10;;;;;;5024872;28;46496;-69
2023/06/09 10:21:45;;;;;;;14.60;3.80;;;25.00;11.10;;;;;;5023533;28;46458;-72
2023/06/09 10:24:12;;;;;;;9.07;5.30;;;24.90;11.70;;;;;;5022362;28;46528;-70
2023/06/09 10:26:38;;;;;;;6.57;4.37;;;24.90;11.50;;;;;;5021483;28;46667;-69
2023/06/09 10:29:11;;;;;;;6.70;4.40;;;24.60;11.30;;;;;;5025301;28;46362;-69
2023/06/09 10:31:44;;;;;;;7.67;4.97;;;24.80;10.30;;;;;;5020714;28;46735;-71
2023/06/09 10:34:12;;;;;;;7.13;4.77;;;24.80;11.10;;;;;;5039912;28;46573;-70
2023/06/09 10:36:38;;;;;;;7.10;4.93;;;24.80;10.90;;;;;;5022510;28;47207;-70
2023/06/09 10:39:17;;;;;;;7.40;4.17;;;24.90;10.80;;;;;;5026882;28;45780;-71
2023/06/09 10:42:08;;;;;;;5.50;3.80;;;25.20;9.90;;;;;;5023579;28;46266;-72
2023/06/09 10:44:47;;;;;;;6.43;4.20;;;25.20;10.40;;;;;;5016517;28;46521;-71
2023/06/09 10:47:43;;;;;;;9.03;4.00;;;25.20;10.50;;;;;;5024773;28;46675;-71
2023/06/09 10:50:32;;;;;;;9.27;4.27;;;25.40;10.30;;;;;;5024445;28;46433;-70
2023/06/09 10:53:02;;;;;;;6.33;3.93;;;25.60;9.40;;;;;;5024637;28;46465;-73
2023/06/09 10:55:30;;;;;;;7.33;3.40;;;25.60;9.80;;;;;;5021967;28;46372;-72
2023/06/09 10:57:57;;;;;;;7.00;3.90;;;25.60;8.40;;;;;;5028578;28;46509;-71
2023/06/09 11:00:24;;;;;;;6.87;3.97;;;25.60;7.40;;;;;;5018411;28;46654;-72
2023/06/09 11:03:29;;;;;;;5.53;3.30;;;25.60;6.50;;;;;;5025111;28;46468;-71
2023/06/09 11:06:00;;;;;;;8.80;4.00;;;25.50;7.30;;;;;;5021957;28;46396;-72
2023/06/09 11:08:26;;;;;;;7.80;3.57;;;25.20;7.70;;;;;;5019855;28;46817;-71
2023/06/09 11:10:51;;;;;;;8.17;3.47;;;25.10;8.30;;;;;;5018835;28;47636;-71
2023/06/09 11:13:38;;;;;;;6.27;3.77;;;25.40;6.90;;;;;;5026509;28;46438;-71
2023/06/09 11:16:04;;;;;;;8.03;3.50;;;25.50;7.60;;;;;;5027864;28;46497;-71
2023/06/09 11:18:30;;;;;;;4.73;2.83;;;25.30;7.60;;;;;;5022828;28;46099;-71
2023/06/09 11:21:10;;;;;;;5.40;3.33;;;25.40;6.90;;;;;;5017208;28;46460;-71
2023/06/09 11:24:00;;;;;;;4.67;3.20;;;25.60;7.00;;;;;;5020540;28;46461;-72
2023/06/09 11:26:26;;;;;;;5.63;3.43;;;25.50;7.40;;;;;;5020635;28;46333;-72
2023/06/09 11:28:52;;;;;;;6.97;4.50;;;25.50;7.50;;;;;;5024232;28;46445;-72
2023/06/09 11:31:18;;;;;;;7.80;4.87;;;25.70;7.20;;;;;;5028134;28;46417;-71
2023/06/09 11:33:48;;;;;;;7.37;4.17;;;25.60;6.60;;;;;;5025594;28;46443;-71
2023/06/09 11:36:21;;;;;;;7.27;4.47;;;25.30;8.00;;;;;;5026961;28;46559;-72
2023/06/09 11:38:48;;;;;;;6.60;3.83;;;24.80;8.80;;;;;;5023748;28;47072;-71
2023/06/09 11:41:18;;;;;;;5.70;3.57;;;24.80;9.30;;;;;;5025635;28;46479;-71
2023/06/09 11:43:50;;;;;;;6.90;3.90;;;24.90;8.20;;;;;;5024326;28;46214;-72
2023/06/09 11:46:17;;;;;;;6.23;3.97;;;25.00;8.70;;;;;;5023840;28;46508;-71
2023/06/09 11:48:58;;;;;;;12.93;4.77;;;25.40;8.50;;;;;;5026499;28;46425;-72
2023/06/09 11:51:24;;;;;;;10.90;3.80;;;25.30;8.30;;;;;;5024063;28;46497;-71
2023/06/09 11:53:50;;;;;;;7.23;3.90;;;25.60;6.80;;;;;;5027618;28;46383;-72
2023/06/09 11:56:15;;;;;;;9.53;4.73;;;25.60;7.90;;;;;;5024192;28;46775;-70
2023/06/09 11:58:42;;;;;;;8.93;4.93;;;25.90;6.80;;;;;;5028170;28;47023;-71
2023/06/09 12:01:08;;;;;;;8.57;6.07;;;25.80;8.00;;;;;;5027328;28;46361;-72
2023/06/09 12:03:36;;;;;;;11.77;5.27;;;25.40;8.70;;;;;;5023611;28;46973;-71
2023/06/09 12:06:02;;;;;;;8.27;5.00;;;25.50;8.80;;;;;;5028255;28;46461;-71
2023/06/09 12:08:28;;;;;;;8.40;5.10;;;25.50;8.90;;;;;;5023561;28;47143;-71
2023/06/09 12:10:54;;;;;;;7.73;4.90;;;25.50;8.70;;;;;;5022993;28;46556;-70
2023/06/09 12:13:19;;;;;;;5.80;4.17;;;25.60;8.70;;;;;;5026267;28;46493;-71
2023/06/09 12:15:52;;;;;;;7.67;4.33;;;25.70;8.40;;;;;;5024781;28;46528;-71
2023/06/09 12:18:17;;;;;;;8.03;4.60;;;26.00;7.50;;;;;;5023418;28;46698;-71
2023/06/09 12:20:46;;;;;;;7.60;3.73;;;25.70;7.70;;;;;;5020549;28;46153;-71
2023/06/09 12:23:14;;;;;;;8.33;3.57;;;25.80;7.40;;;;;;5023284;28;46652;-73
2023/06/09 12:25:44;;;;;;;5.67;3.70;;;26.20;6.90;;;;;;5011582;28;46534;-69
2023/06/09 12:28:14;;;;;;;7.50;4.47;;;26.30;6.50;;;;;;5020385;28;48693;-70
2023/06/09 12:30:49;;;;;;;7.47;4.30;;;26.50;6.40;;;;;;5022252;28;46737;-70
2023/06/09 12:33:20;;;;;;;7.10;3.87;;;26.20;6.90;;;;;;5020417;28;46617;-70
2023/06/09 12:36:02;;;;;;;6.40;4.40;;;26.30;7.00;;;;;;5017048;28;46709;-71
2023/06/09 12:38:28;;;;;;;6.73;4.10;;;26.20;6.70;;;;;;5023056;28;47628;-68
2023/06/09 12:41:03;;;;;;;5.33;3.97;;;26.20;6.90;;;;;;5022231;28;46585;-68
2023/06/09 12:43:51;;;;;;;6.57;3.47;;;26.40;6.80;;;;;;5017404;28;46847;-68
2023/06/09 12:46:25;;;;;;;6.00;4.50;;;26.80;5.80;;;;;;5022637;28;46625;-67
2023/06/09 12:49:02;;;;;;;7.03;4.50;;;26.50;5.40;;;;;;5022618;28;46226;-68